Ranchos Taos, New Mexico
Current Conditions -  °F | °C
As of 2:35 PM on Friday 19 Dec 2014 (Local Time) from KSKX Reporting Station
Clear Clear  
Wind Chill: 31°   Ceiling: Unl
Heat Index: 36°   Visibility: 10mi
Dew Point: 16°   Wind: 6mph
Humidity: 44%   Direction: 320°NW
Pressure: 30.15"   Gusts: NA
Location:  36.2692°N, 105.543°W
Report Text: KSKX 192135Z AUTO 32005KT 10SM CLR 02/M09 A3015 RMK AO1
Loading
Personal Weather Stations






























Interactive Weather Map New forecast layout! Learn more

10-Day Weather Forecast

Advertisements
Track Severe Weather on mobile